Time;durP1;ratioP1;P1;durP2;ratioP2;P2;SDS_P1;SDS_P2;PMS_P1;PMS_P2;Temp;Humidity;BMP_temperature;BMP_pressure;BME280_temperature;BME280_humidity;BME280_pressure;Samples;Min_cycle;Max_cycle;Signal;HPM_P1;HPM_P2
2023/04/25 00:01:53;;;;;;;6.87;6.33;;;;;;;21.91;41.11;94337.19;5894586;29;108946;-67
2023/04/25 00:04:57;;;;;;;6.70;6.10;;;;;;;21.89;41.38;94326.84;5916868;29;109044;-67
2023/04/25 00:08:01;;;;;;;6.90;6.40;;;;;;;21.88;41.72;94319.97;5926634;29;108919;-67
2023/04/25 00:11:05;;;;;;;6.77;6.17;;;;;;;21.86;41.60;94316.06;5924315;29;109072;-66
2023/04/25 00:14:09;;;;;;;7.33;6.73;;;;;;;21.83;41.77;94298.81;5901709;29;108870;-66
2023/04/25 00:17:13;;;;;;;6.70;6.10;;;;;;;21.87;41.82;94301.66;5894926;29;109173;-68
2023/04/25 00:20:16;;;;;;;6.50;6.00;;;;;;;21.82;41.35;94281.28;5907629;29;108970;-67
2023/04/25 00:23:19;;;;;;;7.57;6.87;;;;;;;21.88;41.31;94288.00;5907313;29;108974;-66
2023/04/25 00:26:22;;;;;;;7.53;6.00;;;;;;;21.87;41.31;94289.09;5902123;29;109188;-66
2023/04/25 00:29:26;;;;;;;7.10;6.43;;;;;;;21.87;41.33;94286.44;5900532;29;109189;-67
2023/04/25 00:32:29;;;;;;;6.60;6.10;;;;;;;21.86;41.81;94273.44;5918872;29;108903;-67
2023/04/25 00:35:33;;;;;;;7.00;6.40;;;;;;;21.87;41.73;94264.34;5915814;29;108966;-66
2023/04/25 00:38:38;;;;;;;7.03;6.50;;;;;;;21.86;41.74;94262.78;5902023;29;109160;-67
2023/04/25 00:41:41;;;;;;;6.10;5.60;;;;;;;21.86;41.34;94258.25;5913867;29;109167;-67
2023/04/25 00:44:46;;;;;;;7.50;6.80;;;;;;;21.86;41.66;94255.59;5921805;29;108998;-68
2023/04/25 00:47:49;;;;;;;7.07;6.47;;;;;;;21.86;41.75;94250.25;5922590;29;108951;-67
2023/04/25 00:50:54;;;;;;;6.90;6.30;;;;;;;21.86;41.55;94250.25;5918039;29;110235;-67
2023/04/25 00:53:57;;;;;;;6.80;6.20;;;;;;;21.86;41.68;94239.59;5915918;29;109097;-67
2023/04/25 00:57:01;;;;;;;6.50;5.90;;;;;;;21.86;41.48;94236.16;5925303;29;109005;-67
2023/04/25 01:00:07;;;;;;;7.20;6.50;;;;;;;21.84;41.83;94239.13;5909603;29;108936;-66
2023/04/25 01:03:11;;;;;;;6.50;6.00;;;;;;;21.85;41.60;94237.25;5917109;29;108881;-69
2023/04/25 01:06:15;;;;;;;7.77;6.97;;;;;;;21.85;41.93;94224.72;5916948;29;108896;-68
2023/04/25 01:09:18;;;;;;;6.57;6.07;;;;;;;21.85;41.78;94227.41;5923803;29;108808;-67
2023/04/25 01:12:22;;;;;;;8.50;5.70;;;;;;;21.85;41.85;94229.28;5898763;29;110331;-67
2023/04/25 01:15:26;;;;;;;6.47;5.87;;;;;;;21.81;41.54;94213.13;5917425;29;109391;-67
2023/04/25 01:18:29;;;;;;;6.17;5.67;;;;;;;21.84;41.46;94207.16;5922645;29;108876;-68
2023/04/25 01:21:34;;;;;;;7.00;6.47;;;;;;;21.84;41.76;94211.72;5907103;29;109120;-67
2023/04/25 01:24:38;;;;;;;6.80;6.30;;;;;;;21.83;41.41;94210.94;5894359;29;108977;-67
2023/04/25 01:27:41;;;;;;;6.33;5.83;;;;;;;21.83;41.95;94204.81;5907308;29;108918;-67
2023/04/25 01:30:45;;;;;;;6.60;6.10;;;;;;;21.83;41.32;94197.63;5889851;29;108960;-67
2023/04/25 01:33:48;;;;;;;6.10;5.57;;;;;;;21.82;41.40;94201.38;5903963;29;109004;-68
2023/04/25 01:36:54;;;;;;;6.63;6.03;;;;;;;21.82;41.52;94204.03;5881725;29;109397;-67
2023/04/25 01:39:57;;;;;;;6.80;5.50;;;;;;;21.83;41.86;94194.16;5920507;29;108732;-68
2023/04/25 01:43:00;;;;;;;6.80;6.20;;;;;;;21.83;41.76;94202.16;5902761;29;108936;-67
2023/04/25 01:46:04;;;;;;;6.00;5.50;;;;;;;21.79;41.88;94202.78;5898011;29;109281;-65
2023/04/25 01:49:08;;;;;;;5.80;5.30;;;;;;;21.80;41.51;94193.69;5912654;29;108973;-67
2023/04/25 01:52:13;;;;;;;6.03;5.53;;;;;;;21.81;41.66;94203.25;5920557;29;108962;-67
2023/04/25 01:55:16;;;;;;;6.43;5.93;;;;;;;21.75;41.56;94203.75;5927092;29;109012;-68
2023/04/25 01:58:19;;;;;;;5.80;5.30;;;;;;;21.77;41.56;94199.66;5907510;29;108896;-67
2023/04/25 02:01:22;;;;;;;6.23;5.73;;;;;;;21.81;41.62;94208.56;5922308;29;109060;-68
2023/04/25 02:04:25;;;;;;;6.50;5.90;;;;;;;21.79;41.25;94215.31;5926158;29;109110;-68
2023/04/25 02:07:30;;;;;;;7.30;6.70;;;;;;;21.81;41.61;94205.13;5925515;29;108960;-62
2023/04/25 02:10:33;;;;;;;6.13;5.70;;;;;;;21.81;41.75;94213.88;5909152;29;109003;-62
2023/04/25 02:13:36;;;;;;;7.00;6.40;;;;;;;21.82;41.63;94209.38;5909689;29;109041;-62
2023/04/25 02:16:39;;;;;;;10.07;7.53;;;;;;;21.81;41.91;94207.78;5904227;29;108906;-62
2023/04/25 02:19:43;;;;;;;8.03;7.33;;;;;;;21.80;41.68;94201.69;5917496;29;109007;-62
2023/04/25 02:22:47;;;;;;;9.10;8.40;;;;;;;21.80;41.55;94184.91;5910641;29;109001;-62
2023/04/25 02:25:51;;;;;;;9.17;8.27;;;;;;;21.80;41.26;94184.91;5903718;29;108909;-62
2023/04/25 02:28:54;;;;;;;10.17;9.27;;;;;;;21.78;41.70;94185.25;5903980;29;109025;-62
2023/04/25 02:31:57;;;;;;;9.60;8.80;;;;;;;21.78;41.11;94179.16;5905584;29;109252;-62
2023/04/25 02:35:03;;;;;;;10.90;9.90;;;;;;;21.79;41.71;94172.72;5911891;29;108983;-61
2023/04/25 02:38:08;;;;;;;9.20;8.40;;;;;;;21.79;41.34;94173.50;5911724;29;108945;-61
2023/04/25 02:41:11;;;;;;;10.27;9.47;;;;;;;21.78;41.61;94173.81;5896097;29;108878;-61
2023/04/25 02:44:14;;;;;;;10.17;9.27;;;;;;;21.79;41.58;94176.16;5888827;29;109982;-63
2023/04/25 02:47:17;;;;;;;10.67;9.77;;;;;;;21.78;41.31;94179.16;5905919;29;108976;-63
2023/04/25 02:50:20;;;;;;;9.73;8.87;;;;;;;21.79;41.60;94170.06;5903086;29;109022;-63
2023/04/25 02:53:25;;;;;;;10.47;8.90;;;;;;;21.79;41.71;94173.50;5905572;29;109037;-63
2023/04/25 02:56:28;;;;;;;9.33;8.53;;;;;;;21.73;41.50;94158.81;5894262;29;108941;-63
2023/04/25 02:59:31;;;;;;;8.87;8.00;;;;;;;21.76;41.68;94158.16;5916387;29;108968;-64
2023/04/25 03:02:34;;;;;;;9.03;8.10;;;;;;;21.79;41.64;94157.50;5919135;29;108930;-64
2023/04/25 03:05:37;;;;;;;8.50;7.60;;;;;;;21.80;41.95;94163.63;5904664;29;108949;-65
2023/04/25 03:08:42;;;;;;;9.70;8.70;;;;;;;21.81;41.86;94171.28;5914200;29;108965;-64
2023/04/25 03:11:46;;;;;;;83.47;76.37;;;;;;;21.82;42.65;94166.75;5889248;29;109007;-63
2023/04/25 03:14:49;;;;;;;223.00;204.87;;;;;;;21.81;42.24;94157.19;5885014;29;108983;-64
2023/04/25 03:17:52;;;;;;;157.53;143.53;;;;;;;21.78;43.00;94149.84;5884119;29;109114;-63
2023/04/25 03:20:56;;;;;;;182.40;166.90;;;;;;;21.83;43.20;94149.69;5902713;29;108951;-63
2023/04/25 03:24:01;;;;;;;160.90;147.10;;;;;;;21.84;43.46;94158.44;5903785;29;108971;-63
2023/04/25 03:27:04;;;;;;;142.47;130.40;;;;;;;21.83;43.20;94156.88;5903377;29;109006;-63
2023/04/25 03:30:08;;;;;;;119.67;109.07;;;;;;;21.81;43.63;94167.84;5893987;29;109110;-64
2023/04/25 03:33:11;;;;;;;58.57;53.17;;;;;;;21.56;43.04;94158.16;5895770;29;109162;-63
2023/04/25 03:36:14;;;;;;;47.63;43.20;;;;;;;21.34;42.94;94168.00;5895386;29;108953;-63
2023/04/25 03:39:19;;;;;;;50.47;45.93;;;;;;;21.19;43.43;94153.38;5901859;29;109234;-66
2023/04/25 03:42:23;;;;;;;41.33;37.53;;;;;;;21.33;43.76;94155.00;5896734;29;109012;-69
2023/04/25 03:45:26;;;;;;;26.47;24.27;;;;;;;21.43;44.99;94160.75;5904026;29;108992;-68
2023/04/25 03:48:29;;;;;;;20.90;19.00;;;;;;;21.53;44.16;94154.28;5914209;29;108974;-68
2023/04/25 03:51:32;;;;;;;23.10;21.00;;;;;;;21.60;43.48;94153.75;5891374;29;109130;-68
2023/04/25 03:54:37;;;;;;;21.73;19.87;;;;;;;21.69;43.40;94157.13;5901007;29;109017;-70
2023/04/25 03:57:40;;;;;;;19.40;17.60;;;;;;;21.77;43.01;94164.28;5910786;29;108913;-68
2023/04/25 04:00:43;;;;;;;16.57;14.93;;;;;;;21.71;43.57;94163.69;5909463;29;109127;-68
2023/04/25 04:03:46;;;;;;;12.60;11.40;;;;;;;21.68;44.85;94152.91;5913048;29;108986;-68
2023/04/25 04:06:50;;;;;;;17.97;16.27;;;;;;;21.73;44.15;94158.03;5909722;29;108971;-67
2023/04/25 04:09:55;;;;;;;36.17;32.50;;;;;;;21.41;44.85;94151.53;5908235;29;109175;-67
2023/04/25 04:12:58;;;;;;;20.07;18.27;;;;;;;21.58;44.60;94163.94;5924877;29;108914;-66
2023/04/25 04:16:01;;;;;;;17.37;15.67;;;;;;;21.65;44.01;94172.19;5918955;29;109298;-67
2023/04/25 04:19:04;;;;;;;13.40;12.10;;;;;;;21.68;43.88;94179.53;5927109;29;109194;-62
2023/04/25 04:22:07;;;;;;;10.80;9.90;;;;;;;21.57;42.87;94159.72;5920708;29;109185;-67
2023/04/25 04:25:12;;;;;;;11.60;10.60;;;;;;;21.42;42.79;94151.19;5898039;29;109270;-66
2023/04/25 04:28:15;;;;;;;10.43;9.60;;;;;;;21.54;42.92;94171.81;5906166;29;108885;-66
2023/04/25 04:31:19;;;;;;;13.37;12.33;;;;;;;21.57;42.66;94173.03;5906206;29;109002;-66
2023/04/25 04:34:24;;;;;;;20.23;18.27;;;;;;;21.56;43.12;94179.47;5906332;29;108976;-65
2023/04/25 04:37:27;;;;;;;17.43;15.83;;;;;;;21.55;42.67;94168.03;5873014;29;109909;-65
2023/04/25 04:40:32;;;;;;;12.93;11.93;;;;;;;21.53;42.61;94164.91;5883866;29;108814;-66
2023/04/25 04:43:36;;;;;;;10.20;9.40;;;;;;;21.54;42.96;94160.38;5883835;29;109378;-65
2023/04/25 04:46:41;;;;;;;12.43;11.43;;;;;;;21.53;42.51;94159.59;5883675;29;109081;-65
2023/04/25 04:49:45;;;;;;;16.00;14.60;;;;;;;21.48;43.22;94168.53;5872611;29;108942;-65
2023/04/25 04:52:48;;;;;;;10.73;9.80;;;;;;;21.46;42.53;94170.72;5895915;29;108943;-65
2023/04/25 04:55:52;;;;;;;8.90;8.20;;;;;;;21.28;42.85;94158.63;5905586;29;108968;-67
2023/04/25 04:58:56;;;;;;;8.30;7.60;;;;;;;21.31;43.26;94163.31;5901354;29;108879;-66
2023/04/25 05:01:59;;;;;;;7.30;6.80;;;;;;;21.39;42.95;94181.13;5900312;29;108980;-66
2023/04/25 05:05:02;;;;;;;7.60;6.90;;;;;;;21.39;43.16;94178.47;5905443;29;108929;-65
2023/04/25 05:08:05;;;;;;;6.70;6.10;;;;;;;21.39;42.54;94186.44;5904200;29;108929;-66
2023/04/25 05:11:09;;;;;;;5.70;5.30;;;;;;;21.28;43.04;94177.25;5894484;29;109013;-66
2023/04/25 05:14:13;;;;;;;4.53;4.20;;;;;;;21.19;42.49;94187.97;5904857;29;109154;-66
2023/04/25 05:17:16;;;;;;;4.70;4.30;;;;;;;21.02;43.75;94179.25;5905569;29;109065;-65
2023/04/25 05:20:19;;;;;;;3.70;3.50;;;;;;;20.92;43.62;94180.38;5905398;29;108937;-66
2023/04/25 05:23:22;;;;;;;4.30;3.93;;;;;;;20.49;44.74;94193.78;5895080;29;109350;-67
2023/04/25 05:26:30;;;;;;;5.33;4.90;;;;;;;20.30;44.62;94194.91;5905323;29;108923;-67
2023/04/25 05:29:33;;;;;;;4.83;4.53;;;;;;;20.03;44.69;94200.53;5905590;29;108878;-65
2023/04/25 05:32:36;;;;;;;4.60;4.20;;;;;;;20.22;44.41;94186.94;5884804;29;109149;-66
2023/04/25 05:35:40;;;;;;;3.90;3.60;;;;;;;20.36;43.83;94184.91;5875433;29;109069;-66
2023/04/25 05:38:43;;;;;;;4.37;4.00;;;;;;;20.47;43.75;94191.44;5882213;29;108870;-71
2023/04/25 05:41:47;;;;;;;4.73;4.33;;;;;;;20.43;44.68;94189.72;5882698;29;109379;-71
2023/04/25 05:44:51;;;;;;;4.60;4.30;;;;;;;20.45;44.67;94204.25;5873010;29;108911;-70
2023/04/25 05:47:54;;;;;;;5.83;5.30;;;;;;;19.67;45.93;94206.91;5882302;29;109056;-70
2023/04/25 05:50:57;;;;;;;5.30;4.90;;;;;;;19.04;47.26;94202.81;5882690;29;108876;-70
2023/04/25 05:54:00;;;;;;;4.63;4.33;;;;;;;19.75;45.71;94194.72;5903614;29;108933;-70
2023/04/25 05:57:05;;;;;;;4.40;4.10;;;;;;;20.26;44.83;94199.28;5894600;29;109022;-70
2023/04/25 06:00:10;;;;;;;4.40;4.10;;;;;;;20.52;44.41;94209.13;5904887;29;109001;-71
2023/04/25 06:03:14;;;;;;;7.47;4.37;;;;;;;20.68;43.94;94199.53;5904498;29;108978;-70
2023/04/25 06:06:21;;;;;;;3.80;3.50;;;;;;;20.78;43.31;94204.50;5904304;29;108771;-64
2023/04/25 06:09:24;;;;;;;4.70;4.30;;;;;;;20.85;43.43;94204.81;5893267;29;109396;-70
2023/04/25 06:12:29;;;;;;;4.27;3.97;;;;;;;20.91;43.88;94208.84;5904404;29;108863;-69
2023/04/25 06:15:32;;;;;;;4.23;3.53;;;;;;;;;;5904487;29;108917;-72
2023/04/25 06:18:35;;;;;;;4.43;4.10;;;;;;;20.98;43.42;94192.38;5898903;29;108933;-71
2023/04/25 06:21:38;;;;;;;3.93;3.60;;;;;;;21.03;43.46;94189.56;5898956;29;108945;-72
2023/04/25 06:24:41;;;;;;;3.90;3.60;;;;;;;21.06;43.42;94194.28;5903678;29;108991;-70
2023/04/25 06:27:46;;;;;;;3.53;3.33;;;;;;;21.08;43.68;94201.94;5903998;29;108940;-72
2023/04/25 06:30:49;;;;;;;4.03;3.73;;;;;;;21.09;43.58;94204.28;5893697;29;108897;-72
2023/04/25 06:33:54;;;;;;;3.30;3.10;;;;;;;21.09;43.39;94201.59;5904129;29;108949;-72
2023/04/25 06:36:57;;;;;;;4.60;4.20;;;;;;;21.09;43.22;94203.50;5903860;29;109015;-76
2023/04/25 06:40:00;;;;;;;4.13;3.80;;;;;;;21.16;43.51;94201.09;5903629;29;108978;-70
2023/04/25 06:43:05;;;;;;;4.10;3.80;;;;;;;21.19;43.19;94203.16;5894208;29;108894;-71
2023/04/25 06:46:08;;;;;;;3.77;3.47;;;;;;;21.25;43.41;94212.50;5903801;29;109269;-70
2023/04/25 06:49:11;;;;;;;5.50;3.70;;;;;;;21.30;43.24;94206.97;5903641;29;108937;-65
2023/04/25 06:52:14;;;;;;;4.40;3.70;;;;;;;21.32;43.46;94204.00;5901599;29;108950;-67
2023/04/25 06:55:18;;;;;;;3.77;3.47;;;;;;;21.32;43.12;94207.44;5896238;29;109233;-66
2023/04/25 06:58:22;;;;;;;3.40;3.07;;;;;;;21.33;43.58;94206.34;5903691;29;109070;-66
2023/04/25 07:01:25;;;;;;;4.30;3.90;;;;;;;21.37;43.16;94209.94;5903570;29;108886;-66
2023/04/25 07:04:29;;;;;;;4.10;3.70;;;;;;;21.39;43.03;94212.28;5893438;29;110397;-66
2023/04/25 07:07:32;;;;;;;3.70;3.40;;;;;;;21.41;43.43;94213.50;5902709;29;108942;-66
2023/04/25 07:10:35;;;;;;;3.53;3.20;;;;;;;21.41;43.10;94202.88;5902650;29;109001;-67
2023/04/25 07:13:39;;;;;;;3.00;2.80;;;;;;;21.39;43.64;94202.41;5903680;29;109004;-67
2023/04/25 07:16:43;;;;;;;4.33;3.93;;;;;;;21.41;43.46;94207.41;5893681;29;109411;-67
2023/04/25 07:19:46;;;;;;;3.10;2.90;;;;;;;21.39;42.77;94207.75;5903299;29;108986;-66
2023/04/25 07:22:49;;;;;;;3.80;3.50;;;;;;;21.39;43.07;94202.41;5903869;29;109261;-66
2023/04/25 07:25:52;;;;;;;3.03;2.83;;;;;;;21.38;43.34;94211.50;5903037;29;109006;-66
2023/04/25 07:28:57;;;;;;;3.10;2.90;;;;;;;21.37;42.60;94201.97;5892992;29;108972;-65
2023/04/25 07:32:00;;;;;;;3.90;3.60;;;;;;;21.37;42.93;94209.94;5903248;29;108902;-68
2023/04/25 07:35:04;;;;;;;3.20;2.90;;;;;;;21.38;42.64;94208.06;5903376;29;109073;-68
2023/04/25 07:38:07;;;;;;;3.90;2.83;;;;;;;21.36;42.65;94196.97;5902116;29;108950;-66
2023/04/25 07:41:10;;;;;;;3.30;3.10;;;;;;;21.35;42.79;94201.50;5900586;29;108947;-66
2023/04/25 07:44:15;;;;;;;3.63;3.03;;;;;;;21.34;42.68;94194.63;5907133;29;108924;-67
2023/04/25 07:47:20;;;;;;;3.17;2.97;;;;;;;21.36;42.58;94199.63;5906831;29;109053;-67
2023/04/25 07:50:23;;;;;;;3.57;3.33;;;;;;;21.34;43.34;94193.81;5896218;29;108931;-66
2023/04/25 07:53:26;;;;;;;3.10;2.90;;;;;;;21.34;43.35;94183.97;5906539;29;108923;-66
2023/04/25 07:56:29;;;;;;;4.00;3.47;;;;;;;21.34;42.84;94183.97;5907137;29;109277;-66
2023/04/25 07:59:52;;;;;;;3.30;3.00;;;;;;;21.35;43.07;94185.53;5906834;29;108946;-63
2023/04/25 08:02:55;;;;;;;3.37;3.17;;;;;;;21.36;42.94;94181.78;5896677;29;109019;-63
2023/04/25 08:05:59;;;;;;;3.20;2.90;;;;;;;21.34;43.05;94189.31;5905933;29;108921;-63
2023/04/25 08:09:02;;;;;;;3.40;3.10;;;;;;;21.34;43.55;94183.97;5906849;29;108958;-63
2023/04/25 08:12:06;;;;;;;3.70;3.40;;;;;;;21.35;43.09;94177.56;5901748;29;110645;-63
2023/04/25 08:15:11;;;;;;;3.50;3.30;;;;;;;21.40;42.97;94188.00;5901151;29;108936;-62
2023/04/25 08:18:14;;;;;;;3.40;3.10;;;;;;;21.43;42.88;94186.56;5906627;29;108943;-63
2023/04/25 08:21:20;;;;;;;45.67;41.60;;;;;;;21.50;43.97;94190.28;5906397;29;109114;-61
2023/04/25 08:24:23;;;;;;;35.00;32.30;;;;;;;21.53;44.09;94186.22;5895837;29;109140;-61
2023/04/25 08:27:26;;;;;;;44.80;41.10;;;;;;;21.59;44.45;94184.13;5906137;29;108925;-62
2023/04/25 08:30:30;;;;;;;28.53;26.13;;;;;;;21.63;44.41;94174.38;5906096;29;108916;-62
2023/04/25 08:33:33;;;;;;;19.60;17.90;;;;;;;21.64;43.40;94167.97;5906152;29;108940;-61
2023/04/25 08:36:37;;;;;;;14.90;13.60;;;;;;;21.62;43.64;94162.19;5896529;29;109279;-61
2023/04/25 08:39:42;;;;;;;11.27;10.37;;;;;;;21.63;43.21;94163.75;5906337;29;108835;-59
2023/04/25 08:42:46;;;;;;;10.00;9.17;;;;;;;21.65;43.04;94156.22;5905167;29;108988;-59
2023/04/25 08:45:53;;;;;;;9.70;8.90;;;;;;;21.68;43.37;94160.91;5905030;29;109048;-59
2023/04/25 08:49:01;;;;;;;10.47;9.57;;;;;;;21.74;43.70;94167.59;5898328;29;108917;-59
2023/04/25 08:52:06;;;;;;;9.47;8.73;;;;;;;21.76;43.44;94162.72;5906208;29;109016;-59
2023/04/25 08:55:10;;;;;;;8.77;8.07;;;;;;;21.81;43.49;94167.84;5905661;29;109002;-61
2023/04/25 08:58:14;;;;;;;7.80;7.20;;;;;;;21.84;43.56;94169.09;5896258;29;108983;-60
2023/04/25 09:01:19;;;;;;;7.90;7.17;;;;;;;21.90;43.42;94167.81;5905510;29;108937;-59
2023/04/25 09:04:22;;;;;;;7.40;6.70;;;;;;;21.87;43.46;94169.25;5905807;29;109019;-60
2023/04/25 09:07:25;;;;;;;6.77;6.23;;;;;;;21.87;44.06;94160.47;5904947;29;109155;-59
2023/04/25 09:10:29;;;;;;;5.87;5.47;;;;;;;21.86;43.59;94157.03;5895803;29;110635;-63
2023/04/25 09:13:33;;;;;;;6.77;6.07;;;;;;;21.88;43.61;94146.84;5905040;29;108953;-62
2023/04/25 09:16:59;;;;;;;5.47;4.97;;;;;;;21.93;43.83;94151.97;5905307;29;108917;-62
2023/04/25 09:20:10;;;;;;;5.00;4.60;;;;;;;21.99;43.97;94152.53;5901585;29;109002;-61
2023/04/25 09:23:13;;;;;;;5.00;4.60;;;;;;;21.95;44.02;94144.41;5899428;29;109885;-63
2023/04/25 09:26:17;;;;;;;4.80;4.40;;;;;;;21.95;44.11;94144.41;5905520;29;109047;-62
2023/04/25 09:29:30;;;;;;;5.60;5.20;;;;;;;21.93;43.49;94146.63;5904961;29;109002;-62
2023/04/25 09:32:34;;;;;;;5.60;4.83;;;;;;;21.86;43.46;94137.63;5894621;29;108912;-61
2023/04/25 09:35:39;;;;;;;5.40;4.20;;;;;;;21.84;43.20;94137.13;5905301;29;108974;-62
2023/04/25 09:38:43;;;;;;;5.20;4.40;;;;;;;21.75;43.42;94142.50;5905012;29;108934;-63
2023/04/25 09:41:46;;;;;;;4.33;4.03;;;;;;;21.77;42.78;94143.75;5905317;29;108917;-62
2023/04/25 09:44:49;;;;;;;5.17;4.20;;;;;;;21.73;43.21;94129.53;5893287;29;109222;-62
2023/04/25 09:47:58;;;;;;;4.20;3.83;;;;;;;21.71;43.01;94133.63;5904823;29;108939;-62
2023/04/25 09:51:09;;;;;;;6.43;3.93;;;;;;;21.70;42.84;94140.06;5904914;29;108998;-64
2023/04/25 09:54:14;;;;;;;3.83;3.53;;;;;;;21.68;43.22;94139.59;5899874;29;108915;-63
2023/04/25 09:57:19;;;;;;;3.87;3.57;;;;;;;21.61;43.58;94132.13;5898799;29;108929;-62
2023/04/25 10:00:23;;;;;;;5.23;4.37;;;;;;;21.62;44.05;94140.88;5904511;29;108912;-62
2023/04/25 10:03:28;;;;;;;9.37;8.57;;;;;;;21.58;44.05;94145.31;5905015;29;108879;-63
2023/04/25 10:06:33;;;;;;;7.27;5.97;;;;;;;21.54;43.49;94131.88;5894763;29;108975;-61
2023/04/25 10:09:39;;;;;;;5.77;5.27;;;;;;;21.51;43.73;94135.97;5904905;29;108822;-63
2023/04/25 10:12:44;;;;;;;5.80;5.20;;;;;;;21.49;43.44;94129.38;5904742;29;109002;-64
2023/04/25 10:15:47;;;;;;;6.40;4.40;;;;;;;21.39;43.16;94116.47;5903963;29;108932;-63
2023/04/25 10:18:53;;;;;;;4.23;3.83;;;;;;;21.48;42.93;94125.16;5893993;29;108917;-60
2023/04/25 10:22:04;;;;;;;3.80;3.50;;;;;;;21.45;42.94;94112.50;5904658;29;108818;-60
2023/04/25 10:25:09;;;;;;;3.30;3.10;;;;;;;21.46;42.97;94117.50;5904173;29;109013;-60
2023/04/25 10:28:12;;;;;;;4.30;4.00;;;;;;;21.48;43.09;94115.28;5901050;29;108954;-61
2023/04/25 10:31:17;;;;;;;4.03;3.73;;;;;;;21.51;43.21;94137.84;5898535;29;109038;-60
2023/04/25 10:34:25;;;;;;;3.90;3.50;;;;;;;21.52;43.71;94144.72;5904350;29;108880;-60
2023/04/25 10:37:28;;;;;;;4.83;3.97;;;;;;;21.53;43.52;94132.97;5904247;29;108964;-59
2023/04/25 10:40:32;;;;;;;3.97;3.67;;;;;;;21.55;43.44;94127.31;5894118;29;108950;-60
2023/04/25 10:43:38;;;;;;;5.23;3.53;;;;;;;21.59;43.58;94114.91;5903939;29;108917;-60
2023/04/25 10:46:41;;;;;;;6.17;5.57;;;;;;;21.61;43.39;94112.72;5903250;29;108867;-59
2023/04/25 10:49:46;;;;;;;5.57;5.07;;;;;;;21.64;43.65;94122.69;5903813;29;108921;-60
2023/04/25 10:52:49;;;;;;;6.03;4.80;;;;;;;21.64;43.20;94114.72;5893604;29;108940;-61
2023/04/25 10:55:52;;;;;;;5.57;5.07;;;;;;;21.63;43.44;94127.25;5903887;29;108983;-61
2023/04/25 10:59:05;;;;;;;6.23;5.10;;;;;;;21.64;43.02;94134.13;5903943;29;109052;-61
2023/04/25 11:02:13;;;;;;;5.20;4.80;;;;;;;21.58;43.34;94126.66;5903735;29;108945;-60
2023/04/25 11:05:23;;;;;;;3.30;3.10;;;;;;;21.61;43.02;94131.34;5896217;29;108933;-61
2023/04/25 11:08:39;;;;;;;3.17;2.97;;;;;;;21.57;43.14;94139.19;5903449;29;108919;-61
2023/04/25 11:11:42;;;;;;;2.30;2.10;;;;;;;21.54;42.86;94128.44;5909183;29;108973;-62
2023/04/25 11:14:45;;;;;;;2.63;2.40;;;;;;;21.51;42.88;94125.31;5899970;29;109032;-60
2023/04/25 11:17:48;;;;;;;2.63;2.43;;;;;;;21.51;43.07;94130.63;5910169;29;108938;-58
2023/04/25 11:20:53;;;;;;;4.10;2.40;;;;;;;21.55;42.81;94125.44;5911329;29;108953;-59
2023/04/25 11:23:57;;;;;;;2.93;2.63;;;;;;;21.56;42.98;94123.56;5911226;29;108916;-59
2023/04/25 11:27:02;;;;;;;4.40;2.00;;;;;;;21.56;42.94;94115.56;5900349;29;108866;-59
2023/04/25 11:30:12;;;;;;;2.53;2.23;;;;;;;21.55;42.73;94109.47;5910814;29;108961;-61
2023/04/25 11:33:15;;;;;;;2.90;2.20;;;;;;;21.50;43.08;94110.41;5910530;29;108953;-60
2023/04/25 11:36:20;;;;;;;2.57;1.77;;;;;;;21.53;43.24;94109.00;5909798;29;108916;-61
2023/04/25 11:39:25;;;;;;;2.60;1.63;;;;;;;21.51;43.06;94112.00;5904372;29;109074;-60
2023/04/25 11:42:28;;;;;;;4.50;3.50;;;;;;;21.48;42.69;94117.94;5910706;29;108945;-60
2023/04/25 11:45:32;;;;;;;4.10;3.70;;;;;;;21.48;42.63;94115.28;5910348;29;108939;-61
2023/04/25 11:48:39;;;;;;;6.30;3.57;;;;;;;21.45;42.59;94110.63;5899301;29;108901;-61
2023/04/25 11:51:45;;;;;;;5.13;3.47;;;;;;;21.41;43.00;94108.94;5909851;29;108917;-61
2023/04/25 11:54:48;;;;;;;8.90;2.30;;;;;;;21.33;42.55;94107.09;5910805;29;108870;-64
2023/04/25 11:57:51;;;;;;;2.20;2.10;;;;;;;21.36;42.40;94125.88;5910894;29;108880;-61
2023/04/25 12:00:58;;;;;;;2.73;2.27;;;;;;;21.36;42.63;94136.53;5900350;29;109044;-66
2023/04/25 12:04:12;;;;;;;2.30;1.70;;;;;;;21.33;42.79;94128.38;5910741;29;109304;-61
2023/04/25 12:07:18;;;;;;;2.37;2.07;;;;;;;21.31;42.54;94144.69;5909799;29;109022;-62
2023/04/25 12:10:22;;;;;;;2.10;1.90;;;;;;;21.22;42.81;94120.03;5910543;29;108966;-61
2023/04/25 12:13:27;;;;;;;2.27;1.70;;;;;;;21.24;43.58;94109.84;5901045;29;108910;-61
2023/04/25 12:16:31;;;;;;;1.80;1.40;;;;;;;21.26;42.98;94112.94;5910092;29;108936;-61
2023/04/25 12:19:35;;;;;;;1.60;1.50;;;;;;;21.27;42.73;94119.81;5909524;29;108979;-60
2023/04/25 12:22:44;;;;;;;2.80;1.57;;;;;;;21.20;42.36;94095.63;5896761;29;108929;-62
2023/04/25 12:25:47;;;;;;;1.13;1.03;;;;;;;21.20;42.90;94098.28;5905853;29;108915;-61
2023/04/25 12:28:51;;;;;;;1.20;1.10;;;;;;;21.19;42.33;94096.72;5906499;29;108901;-60
2023/04/25 12:31:56;;;;;;;3.37;1.07;;;;;;;21.16;42.48;94087.47;5906274;29;108917;-61
2023/04/25 12:34:59;;;;;;;1.87;1.30;;;;;;;21.18;41.88;94089.84;5895787;29;109083;-60
2023/04/25 12:38:03;;;;;;;4.90;1.70;;;;;;;21.17;41.70;94086.41;5906320;29;108972;-61
2023/04/25 12:41:07;;;;;;;2.00;1.50;;;;;;;21.16;41.84;94078.72;5906343;29;108953;-59
2023/04/25 12:44:10;;;;;;;1.60;1.20;;;;;;;21.17;41.56;94088.25;5905917;29;108922;-60
2023/04/25 12:47:13;;;;;;;1.53;1.43;;;;;;;21.19;41.86;94123.31;5896421;29;108869;-63
2023/04/25 12:50:16;;;;;;;1.93;1.70;;;;;;;21.18;41.47;94137.72;5905466;29;108920;-61
2023/04/25 12:53:23;;;;;;;2.17;1.57;;;;;;;21.25;41.80;94139.88;5905934;29;108860;-59
2023/04/25 12:56:27;;;;;;;1.47;1.37;;;;;;;21.28;42.13;94142.66;5900759;29;109548;-60
2023/04/25 12:59:30;;;;;;;1.30;1.20;;;;;;;21.29;42.33;94138.13;5900730;29;109119;-59
2023/04/25 13:02:33;;;;;;;1.80;1.37;;;;;;;21.30;42.41;94143.13;5905752;29;109068;-60
2023/04/25 13:05:37;;;;;;;1.50;1.40;;;;;;;21.32;42.68;94143.56;5905896;29;109038;-61
2023/04/25 13:08:42;;;;;;;1.50;1.40;;;;;;;21.30;42.42;94156.44;5895470;29;108894;-60
2023/04/25 13:11:45;;;;;;;1.57;1.47;;;;;;;21.31;42.37;94157.97;5905665;29;108964;-60
2023/04/25 13:14:48;;;;;;;4.10;1.27;;;;;;;21.30;42.35;94159.09;5905889;29;109047;-60
2023/04/25 13:17:52;;;;;;;1.53;1.20;;;;;;;21.28;42.35;94158.63;5905362;29;108972;-60
2023/04/25 13:20:55;;;;;;;1.97;1.13;;;;;;;21.27;42.14;94156.28;5893792;29;108935;-60
2023/04/25 13:23:59;;;;;;;1.60;1.10;;;;;;;21.25;42.42;94158.50;5905251;29;108937;-60
2023/04/25 13:27:03;;;;;;;0.90;0.80;;;;;;;21.23;42.35;94160.72;5905445;29;108926;-60
2023/04/25 13:30:08;;;;;;;0.97;0.90;;;;;;;21.16;42.71;94153.22;5901741;29;108871;-61
2023/04/25 13:33:11;;;;;;;2.33;1.30;;;;;;;21.19;42.46;94156.03;5899230;29;108790;-60
2023/04/25 13:36:14;;;;;;;1.27;1.00;;;;;;;21.18;42.55;94151.03;5904935;29;109607;-60
2023/04/25 13:39:18;;;;;;;3.13;1.30;;;;;;;21.16;42.79;94150.56;5905033;29;108938;-60
2023/04/25 13:42:22;;;;;;;1.73;1.13;;;;;;;21.13;42.95;94154.63;5894909;29;108965;-60
2023/04/25 13:45:25;;;;;;;1.97;1.40;;;;;;;21.10;43.25;94154.50;5904853;29;110520;-60
2023/04/25 13:48:28;;;;;;;2.00;1.50;;;;;;;21.11;43.26;94156.06;5904832;29;109013;-60
2023/04/25 13:51:31;;;;;;;2.90;1.60;;;;;;;21.11;43.40;94151.53;5904480;29;108881;-63
2023/04/25 13:54:36;;;;;;;3.30;1.97;;;;;;;21.06;43.38;94142.97;5894148;29;109198;-62
2023/04/25 13:57:39;;;;;;;2.97;2.20;;;;;;;21.08;43.64;94143.41;5904973;29;108928;-61
2023/04/25 14:00:43;;;;;;;1.70;1.53;;;;;;;21.04;43.84;94137.16;5904805;29;108965;-61
2023/04/25 14:03:46;;;;;;;1.73;1.63;;;;;;;21.05;43.37;94130.75;5904376;29;109021;-61
2023/04/25 14:06:49;;;;;;;1.93;1.20;;;;;;;21.01;43.56;94135.13;5893598;29;109313;-61
2023/04/25 14:09:54;;;;;;;1.50;1.40;;;;;;;20.97;43.86;94123.56;5904316;29;108892;-62
2023/04/25 14:12:57;;;;;;;3.73;1.70;;;;;;;20.92;43.94;94127.97;5904512;29;108977;-62